Nearby METAR Reports

 

KBML - Berlin, NH
Mise à jour: Wed, 19-Dec-2018 4:52am EST
clair
clair
 Wind from varies
Vent: varies 3 mph , 6 km/h
Température: 16°F , -9°C
Point de rosée: 7°F , -14°C
Humidité: 67%
Baromètre: 29.98 inHg , 1015.2 hPa
Clouds: clair
Visibility: 10 miles , 16 km
2018/12/19 09:52 KBML 190952Z AUTO VRB03KT 10SM CLR M09/M14 A2998 RMK AO2 SLP174 T10941139
KCON - Concord, NH
Mise à jour: Wed, 19-Dec-2018 4:51am EST
clair
clair
 Wind from NO
Vent: NO 15 mph , 24 km/h, Rafale: 24 mph , 39 km/h
Température: 19°F , -7°C
Wind Chill: 5°F , -15°C
Point de rosée: 9°F , -13°C
Humidité: 63%
Baromètre: 30.05 inHg , 1017.6 hPa
Clouds: clair
Visibility: 10 miles , 16 km
2018/12/19 09:51 KCON 190951Z AUTO 31013G21KT 10SM CLR M07/M13 A3005 RMK AO2 SLP183 T10671128
KAFN - Lebanon, NH
Mise à jour: Wed, 19-Dec-2018 4:52am EST
clair
clair
 Wind from calm
Vent: calme
Température: 19°F , -7°C
Point de rosée: 9°F , -13°C
Humidité: 63%
Baromètre: 30.01 inHg , 1016.3 hPa
Clouds: clair
Visibility: 10 miles , 16 km
2018/12/19 09:52 KAFN 190952Z AUTO 00000KT 10SM CLR M07/M13 A3001 RMK AO2 SLP185 T10721128
 
KMHT - Manchester, NH
Mise à jour: Wed, 19-Dec-2018 4:53am EST
couvert
couvert
 Wind from NNO
Vent: NNO 5 mph , 7 km/h
Température: 21°F , -6°C
Wind Chill: 14°F , -10°C
Point de rosée: 9°F , -13°C
Humidité: 58%
Baromètre: 30.05 inHg , 1017.6 hPa
Clouds: couvert
Visibility: 10 miles , 16 km
Cloud details: couvert 20000 ft
2018/12/19 09:53 KMHT 190953Z 34004KT 10SM OVC200 M06/M13 A3005 RMK AO2 SLP197 T10561133
KMWN - Mount Washington
Mise à jour: Wed, 19-Dec-2018 4:52am EST

 Wind from NNO
Vent: NNO 62 mph , 100 km/h, Rafale: 81 mph , 130 km/h
Visibility: 130 miles , 208 km
2018/12/19 09:52 KMWN 190952Z 33054G70KT 130SM FEW/// FEW030 FEW050 SCT070 SCT100 BKN150 M12/M21 RMK ACSL DSNT SE-S TPS LWR FEW030
K25B - Portsmouth Harbor
Mise à jour: Wed, 31-Dec-1969 7:00pm EST
NOT Current
unable to load K25B data RC=404 Not Found
unable to load K25B data RC=404 Not Found
 
 
KDDH - Bennington, VT
Mise à jour: Wed, 19-Dec-2018 4:54am EST
clair
clair
 Wind from calm
Vent: calme
Température: 10°F , -12°C
Point de rosée: 7°F , -14°C
Humidité: 85%
Baromètre: 30.09 inHg , 1019 hPa
Clouds: clair
Visibility: 10 miles , 16 km
2018/12/19 09:54 KDDH 190954Z AUTO 00000KT 10SM CLR M12/M14 A3009 RMK AO2 SLP204 T11171144
K9B2 - Newport, VT
Mise à jour: Wed, 31-Dec-1969 7:00pm EST
NOT Current
unable to load K9B2 data RC=404 Not Found
unable to load K9B2 data RC=404 Not Found
 
K1V4 - St Johnsbury, VT
Mise à jour: Wed, 19-Dec-2018 4:54am EST

 
Température: 12°F , -11°C
Point de rosée: 10°F , -12°C
Humidité: 92%
Baromètre: 30.05 inHg , 1017.6 hPa
2018/12/19 09:54 K1V4 190954Z AUTO M11/M12 A3005 RMK AO1 SLP195 T11061122
 
KBGR - Bangor, ME
Mise à jour: Wed, 19-Dec-2018 4:53am EST
partiellement nuageux
partiellement nuageux
 Wind from O
Vent: O 5 mph , 7 km/h
Température: 18°F , -8°C
Wind Chill: 11°F , -12°C
Point de rosée: 9°F , -13°C
Humidité: 68%
Baromètre: 29.94 inHg , 1013.9 hPa
Clouds: partiellement nuageux
Visibility: 10 miles , 16 km
Cloud details: partiellement nuageux 18000 ft
2018/12/19 09:53 KBGR 190953Z 27004KT 10SM SCT180 M08/M13 A2994 RMK AO2 SLP142 T10781128
KBHB - Bar Harbor, ME
Mise à jour: Wed, 19-Dec-2018 4:56am EST
clair
clair
 Wind from ONO
Vent: ONO 5 mph , 7 km/h
Température: 18°F , -8°C
Wind Chill: 11°F , -12°C
Point de rosée: 10°F , -12°C
Humidité: 73%
Baromètre: 29.94 inHg , 1013.9 hPa
Clouds: clair
Visibility: 10 miles , 16 km
2018/12/19 09:56 KBHB 190956Z AUTO 30004KT 10SM CLR M08/M12 A2994 RMK AO2 SLP143 T10781117 FZRANO
74389 - Gray, ME
Mise à jour: Wed, 31-Dec-1969 7:00pm EST
NOT Current
74389 not loaded
74389 not loaded
 
 
KGNR - Greenville,ME
Mise à jour: Wed, 19-Dec-2018 4:56am EST

 Wind from NO
Vent: NO 18 mph , 30 km/h, Rafale: 28 mph , 44 km/h
Température: 10°F , -12°C
Wind Chill: -8°F , -22°C
Point de rosée: 3°F , -16°C
Humidité: 72%
Baromètre: 29.83 inHg , 1010.2 hPa
2018/12/19 09:56 KGNR 190956Z AUTO 31016G24KT M12/M16 A2983 RMK AO1 SLP131 T11171156
KOLD - Old Town, ME
Mise à jour: Wed, 31-Dec-1969 7:00pm EST
NOT Current
unable to load KOLD data RC=404 Not Found
unable to load KOLD data RC=404 Not Found
 
KRUM - Rumford, ME
Mise à jour: Wed, 31-Dec-1969 7:00pm EST
NOT Current
unable to load KRUM data RC=404 Not Found
unable to load KRUM data RC=404 Not Found
 







Contact Us

© 2018, johnsnhweather | Weather-Display (10.37S-(b84)) | Valable XHTML 1.0 | Valable CSS

This website is neither affiliated with nor endorsed by the National Weather Service, the town of Pittsburg or any other government agency.
The weather data contained herein is offered without any warranties expressed or implied, and is meant to supplement NOAA weather forecasts and information. Never base important decisions that could result in harm to people or property on this weather information.